sensor_id;sensor_type;location;lat;lon;timestamp;P1;durP1;ratioP1;P2;durP2;ratioP2
45618;SDS011;31343;47.520;19.144;2023-12-20T00:01:36;5.88;;;2.45;;
45618;SDS011;31343;47.520;19.144;2023-12-20T00:04:02;1.77;;;1.65;;
45618;SDS011;31343;47.520;19.144;2023-12-20T00:06:29;1.70;;;1.40;;
45618;SDS011;31343;47.520;19.144;2023-12-20T00:08:55;3.13;;;2.00;;
45618;SDS011;31343;47.520;19.144;2023-12-20T00:11:21;6.22;;;1.90;;
45618;SDS011;31343;47.520;19.144;2023-12-20T00:13:46;3.80;;;2.55;;
45618;SDS011;31343;47.520;19.144;2023-12-20T00:16:12;2.58;;;2.05;;
45618;SDS011;31343;47.520;19.144;2023-12-20T00:18:38;8.80;;;2.53;;
45618;SDS011;31343;47.520;19.144;2023-12-20T00:21:03;2.08;;;1.67;;
45618;SDS011;31343;47.520;19.144;2023-12-20T00:23:29;3.60;;;1.33;;
45618;SDS011;31343;47.520;19.144;2023-12-20T00:25:55;3.13;;;2.83;;
45618;SDS011;31343;47.520;19.144;2023-12-20T00:28:21;5.03;;;2.85;;
45618;SDS011;31343;47.520;19.144;2023-12-20T00:30:47;3.97;;;1.88;;
45618;SDS011;31343;47.520;19.144;2023-12-20T00:33:13;3.00;;;2.70;;
45618;SDS011;31343;47.520;19.144;2023-12-20T00:35:39;4.30;;;3.20;;
45618;SDS011;31343;47.520;19.144;2023-12-20T00:38:06;6.35;;;2.90;;
45618;SDS011;31343;47.520;19.144;2023-12-20T00:40:33;3.63;;;2.75;;
45618;SDS011;31343;47.520;19.144;2023-12-20T00:42:59;5.43;;;2.53;;
45618;SDS011;31343;47.520;19.144;2023-12-20T00:45:26;3.13;;;2.25;;
45618;SDS011;31343;47.520;19.144;2023-12-20T00:47:52;2.85;;;2.28;;
45618;SDS011;31343;47.520;19.144;2023-12-20T00:50:17;7.07;;;3.10;;
45618;SDS011;31343;47.520;19.144;2023-12-20T00:52:43;4.70;;;2.03;;
45618;SDS011;31343;47.520;19.144;2023-12-20T00:55:09;5.28;;;2.65;;
45618;SDS011;31343;47.520;19.144;2023-12-20T00:57:35;2.55;;;2.30;;
45618;SDS011;31343;47.520;19.144;2023-12-20T01:00:00;3.03;;;2.35;;
45618;SDS011;31343;47.520;19.144;2023-12-20T01:02:26;3.95;;;2.38;;
45618;SDS011;31343;47.520;19.144;2023-12-20T01:04:52;2.63;;;1.95;;
45618;SDS011;31343;47.520;19.144;2023-12-20T01:07:18;1.85;;;1.75;;
45618;SDS011;31343;47.520;19.144;2023-12-20T01:09:44;4.35;;;2.58;;
45618;SDS011;31343;47.520;19.144;2023-12-20T01:12:09;4.07;;;2.75;;
45618;SDS011;31343;47.520;19.144;2023-12-20T01:14:35;2.60;;;1.88;;
45618;SDS011;31343;47.520;19.144;2023-12-20T01:17:01;2.92;;;1.75;;
45618;SDS011;31343;47.520;19.144;2023-12-20T01:19:27;2.60;;;2.15;;
45618;SDS011;31343;47.520;19.144;2023-12-20T01:21:54;7.90;;;2.08;;
45618;SDS011;31343;47.520;19.144;2023-12-20T01:24:20;3.55;;;2.00;;
45618;SDS011;31343;47.520;19.144;2023-12-20T01:26:46;2.72;;;1.90;;
45618;SDS011;31343;47.520;19.144;2023-12-20T01:29:12;4.60;;;3.20;;
45618;SDS011;31343;47.520;19.144;2023-12-20T01:31:39;1.63;;;1.50;;
45618;SDS011;31343;47.520;19.144;2023-12-20T01:34:05;2.33;;;2.13;;
45618;SDS011;31343;47.520;19.144;2023-12-20T01:36:31;1.55;;;1.30;;
45618;SDS011;31343;47.520;19.144;2023-12-20T01:38:57;5.25;;;2.50;;
45618;SDS011;31343;47.520;19.144;2023-12-20T01:41:23;5.45;;;3.28;;
45618;SDS011;31343;47.520;19.144;2023-12-20T01:43:48;3.67;;;3.33;;
45618;SDS011;31343;47.520;19.144;2023-12-20T01:46:14;3.33;;;2.45;;
45618;SDS011;31343;47.520;19.144;2023-12-20T01:48:41;4.28;;;2.22;;
45618;SDS011;31343;47.520;19.144;2023-12-20T01:51:07;5.47;;;2.55;;
45618;SDS011;31343;47.520;19.144;2023-12-20T01:53:33;6.10;;;2.00;;
45618;SDS011;31343;47.520;19.144;2023-12-20T01:55:59;3.47;;;2.85;;
45618;SDS011;31343;47.520;19.144;2023-12-20T01:58:26;1.20;;;1.10;;
45618;SDS011;31343;47.520;19.144;2023-12-20T02:00:52;2.20;;;1.63;;
45618;SDS011;31343;47.520;19.144;2023-12-20T02:03:19;2.75;;;2.30;;
45618;SDS011;31343;47.520;19.144;2023-12-20T02:05:46;3.30;;;1.90;;
45618;SDS011;31343;47.520;19.144;2023-12-20T02:08:14;3.97;;;2.38;;
45618;SDS011;31343;47.520;19.144;2023-12-20T02:10:40;4.38;;;1.65;;
45618;SDS011;31343;47.520;19.144;2023-12-20T02:13:06;7.28;;;3.90;;
45618;SDS011;31343;47.520;19.144;2023-12-20T02:15:32;5.38;;;3.13;;
45618;SDS011;31343;47.520;19.144;2023-12-20T02:17:58;4.45;;;2.40;;
45618;SDS011;31343;47.520;19.144;2023-12-20T02:20:24;5.65;;;2.50;;
45618;SDS011;31343;47.520;19.144;2023-12-20T02:22:50;5.70;;;2.88;;
45618;SDS011;31343;47.520;19.144;2023-12-20T02:25:15;3.17;;;2.17;;
45618;SDS011;31343;47.520;19.144;2023-12-20T02:27:41;2.72;;;1.85;;
45618;SDS011;31343;47.520;19.144;2023-12-20T02:30:07;5.85;;;2.25;;
45618;SDS011;31343;47.520;19.144;2023-12-20T02:32:33;2.38;;;2.25;;
45618;SDS011;31343;47.520;19.144;2023-12-20T02:34:59;7.70;;;3.42;;
45618;SDS011;31343;47.520;19.144;2023-12-20T02:37:25;3.38;;;1.95;;
45618;SDS011;31343;47.520;19.144;2023-12-20T02:39:51;4.28;;;3.92;;
45618;SDS011;31343;47.520;19.144;2023-12-20T02:42:16;4.68;;;3.80;;
45618;SDS011;31343;47.520;19.144;2023-12-20T02:44:42;8.13;;;2.60;;
45618;SDS011;31343;47.520;19.144;2023-12-20T02:47:08;2.17;;;1.98;;
45618;SDS011;31343;47.520;19.144;2023-12-20T02:49:34;2.97;;;2.35;;
45618;SDS011;31343;47.520;19.144;2023-12-20T02:51:59;5.32;;;3.00;;
45618;SDS011;31343;47.520;19.144;2023-12-20T02:54:26;3.83;;;3.53;;
45618;SDS011;31343;47.520;19.144;2023-12-20T02:56:51;3.17;;;2.55;;
45618;SDS011;31343;47.520;19.144;2023-12-20T02:59:17;3.00;;;2.72;;
45618;SDS011;31343;47.520;19.144;2023-12-20T03:01:44;5.00;;;1.70;;
45618;SDS011;31343;47.520;19.144;2023-12-20T03:04:10;3.53;;;2.30;;
45618;SDS011;31343;47.520;19.144;2023-12-20T03:06:36;3.78;;;3.45;;
45618;SDS011;31343;47.520;19.144;2023-12-20T03:09:02;5.32;;;3.22;;
45618;SDS011;31343;47.520;19.144;2023-12-20T03:11:29;3.42;;;3.10;;
45618;SDS011;31343;47.520;19.144;2023-12-20T03:13:55;4.22;;;3.28;;
45618;SDS011;31343;47.520;19.144;2023-12-20T03:16:21;5.68;;;2.08;;
45618;SDS011;31343;47.520;19.144;2023-12-20T03:18:47;6.80;;;3.38;;
45618;SDS011;31343;47.520;19.144;2023-12-20T03:21:13;5.43;;;2.90;;
45618;SDS011;31343;47.520;19.144;2023-12-20T03:23:38;7.25;;;2.17;;
45618;SDS011;31343;47.520;19.144;2023-12-20T03:26:08;3.15;;;2.83;;
45618;SDS011;31343;47.520;19.144;2023-12-20T03:28:34;5.50;;;3.13;;
45618;SDS011;31343;47.520;19.144;2023-12-20T03:31:00;5.63;;;3.67;;
45618;SDS011;31343;47.520;19.144;2023-12-20T03:33:27;3.08;;;2.83;;
45618;SDS011;31343;47.520;19.144;2023-12-20T03:35:53;7.35;;;3.80;;
45618;SDS011;31343;47.520;19.144;2023-12-20T03:38:19;6.90;;;3.42;;
45618;SDS011;31343;47.520;19.144;2023-12-20T03:40:45;4.53;;;3.10;;
45618;SDS011;31343;47.520;19.144;2023-12-20T03:43:11;6.35;;;2.67;;
45618;SDS011;31343;47.520;19.144;2023-12-20T03:45:37;3.30;;;2.95;;
45618;SDS011;31343;47.520;19.144;2023-12-20T03:48:02;2.72;;;1.98;;
45618;SDS011;31343;47.520;19.144;2023-12-20T03:50:28;5.10;;;3.63;;
45618;SDS011;31343;47.520;19.144;2023-12-20T03:52:54;9.02;;;2.72;;
45618;SDS011;31343;47.520;19.144;2023-12-20T03:55:20;7.07;;;5.60;;
45618;SDS011;31343;47.520;19.144;2023-12-20T03:57:45;6.32;;;2.88;;
45618;SDS011;31343;47.520;19.144;2023-12-20T04:00:11;2.83;;;1.67;;
45618;SDS011;31343;47.520;19.144;2023-12-20T04:02:38;7.72;;;5.10;;
45618;SDS011;31343;47.520;19.144;2023-12-20T04:05:04;7.03;;;3.67;;
45618;SDS011;31343;47.520;19.144;2023-12-20T04:07:30;3.70;;;2.83;;
45618;SDS011;31343;47.520;19.144;2023-12-20T04:09:56;1.60;;;1.08;;
45618;SDS011;31343;47.520;19.144;2023-12-20T04:12:22;5.28;;;3.17;;
45618;SDS011;31343;47.520;19.144;2023-12-20T04:14:48;4.38;;;3.25;;
45618;SDS011;31343;47.520;19.144;2023-12-20T04:17:14;3.40;;;1.90;;
45618;SDS011;31343;47.520;19.144;2023-12-20T04:19:41;5.07;;;1.80;;
45618;SDS011;31343;47.520;19.144;2023-12-20T04:22:07;8.35;;;4.43;;
45618;SDS011;31343;47.520;19.144;2023-12-20T04:24:33;4.00;;;2.70;;
45618;SDS011;31343;47.520;19.144;2023-12-20T04:26:59;5.30;;;3.63;;
45618;SDS011;31343;47.520;19.144;2023-12-20T04:29:24;3.20;;;2.55;;
45618;SDS011;31343;47.520;19.144;2023-12-20T04:31:50;3.53;;;3.25;;
45618;SDS011;31343;47.520;19.144;2023-12-20T04:34:19;3.33;;;2.33;;
45618;SDS011;31343;47.520;19.144;2023-12-20T04:36:45;1.80;;;1.70;;
45618;SDS011;31343;47.520;19.144;2023-12-20T04:39:11;7.40;;;3.35;;
45618;SDS011;31343;47.520;19.144;2023-12-20T04:41:38;3.67;;;2.63;;
45618;SDS011;31343;47.520;19.144;2023-12-20T04:44:04;7.07;;;3.45;;
45618;SDS011;31343;47.520;19.144;2023-12-20T04:46:31;2.65;;;2.35;;
45618;SDS011;31343;47.520;19.144;2023-12-20T04:48:57;2.90;;;2.00;;
45618;SDS011;31343;47.520;19.144;2023-12-20T04:51:22;6.45;;;3.40;;
45618;SDS011;31343;47.520;19.144;2023-12-20T04:53:48;4.43;;;3.95;;
45618;SDS011;31343;47.520;19.144;2023-12-20T04:56:14;5.60;;;3.35;;
45618;SDS011;31343;47.520;19.144;2023-12-20T04:58:40;3.45;;;2.58;;
45618;SDS011;31343;47.520;19.144;2023-12-20T05:01:06;4.22;;;2.22;;
45618;SDS011;31343;47.520;19.144;2023-12-20T05:03:32;3.28;;;2.95;;
45618;SDS011;31343;47.520;19.144;2023-12-20T05:05:58;2.70;;;2.50;;
45618;SDS011;31343;47.520;19.144;2023-12-20T05:08:23;5.45;;;2.88;;
45618;SDS011;31343;47.520;19.144;2023-12-20T05:10:50;4.80;;;4.32;;
45618;SDS011;31343;47.520;19.144;2023-12-20T05:13:16;3.88;;;2.75;;
45618;SDS011;31343;47.520;19.144;2023-12-20T05:15:43;1.63;;;1.20;;
45618;SDS011;31343;47.520;19.144;2023-12-20T05:18:09;6.30;;;2.55;;
45618;SDS011;31343;47.520;19.144;2023-12-20T05:20:35;3.33;;;2.33;;
45618;SDS011;31343;47.520;19.144;2023-12-20T05:23:00;4.88;;;2.42;;
45618;SDS011;31343;47.520;19.144;2023-12-20T05:25:27;12.35;;;3.60;;
45618;SDS011;31343;47.520;19.144;2023-12-20T05:27:53;7.28;;;4.80;;
45618;SDS011;31343;47.520;19.144;2023-12-20T05:30:18;3.05;;;2.65;;
45618;SDS011;31343;47.520;19.144;2023-12-20T05:32:44;6.07;;;2.33;;
45618;SDS011;31343;47.520;19.144;2023-12-20T05:35:10;3.15;;;2.35;;
45618;SDS011;31343;47.520;19.144;2023-12-20T05:37:35;5.85;;;3.90;;
45618;SDS011;31343;47.520;19.144;2023-12-20T05:40:01;4.78;;;3.65;;
45618;SDS011;31343;47.520;19.144;2023-12-20T05:42:27;2.83;;;2.40;;
45618;SDS011;31343;47.520;19.144;2023-12-20T05:44:53;3.17;;;2.35;;
45618;SDS011;31343;47.520;19.144;2023-12-20T05:47:19;4.95;;;3.38;;
45618;SDS011;31343;47.520;19.144;2023-12-20T05:49:44;3.88;;;3.13;;
45618;SDS011;31343;47.520;19.144;2023-12-20T05:52:10;4.80;;;2.65;;
45618;SDS011;31343;47.520;19.144;2023-12-20T05:54:36;2.30;;;2.10;;
45618;SDS011;31343;47.520;19.144;2023-12-20T05:57:01;3.53;;;2.80;;
45618;SDS011;31343;47.520;19.144;2023-12-20T05:59:27;4.32;;;3.05;;
45618;SDS011;31343;47.520;19.144;2023-12-20T06:01:53;2.08;;;1.88;;
45618;SDS011;31343;47.520;19.144;2023-12-20T06:04:19;2.90;;;1.52;;
45618;SDS011;31343;47.520;19.144;2023-12-20T06:06:44;1.58;;;1.48;;
45618;SDS011;31343;47.520;19.144;2023-12-20T06:09:10;3.17;;;2.10;;
45618;SDS011;31343;47.520;19.144;2023-12-20T06:11:36;8.07;;;3.03;;
45618;SDS011;31343;47.520;19.144;2023-12-20T06:14:02;6.72;;;3.08;;
45618;SDS011;31343;47.520;19.144;2023-12-20T06:16:28;8.30;;;3.00;;
45618;SDS011;31343;47.520;19.144;2023-12-20T06:18:54;2.72;;;1.92;;
45618;SDS011;31343;47.520;19.144;2023-12-20T06:21:19;5.80;;;1.88;;
45618;SDS011;31343;47.520;19.144;2023-12-20T06:23:46;3.45;;;2.35;;
45618;SDS011;31343;47.520;19.144;2023-12-20T06:26:11;4.10;;;2.35;;
45618;SDS011;31343;47.520;19.144;2023-12-20T06:28:37;5.88;;;2.80;;
45618;SDS011;31343;47.520;19.144;2023-12-20T06:31:03;4.30;;;3.22;;
45618;SDS011;31343;47.520;19.144;2023-12-20T06:33:29;3.45;;;2.05;;
45618;SDS011;31343;47.520;19.144;2023-12-20T06:35:56;2.65;;;2.25;;
45618;SDS011;31343;47.520;19.144;2023-12-20T06:38:22;3.33;;;3.03;;
45618;SDS011;31343;47.520;19.144;2023-12-20T06:40:48;3.60;;;3.05;;
45618;SDS011;31343;47.520;19.144;2023-12-20T06:43:13;3.00;;;2.72;;
45618;SDS011;31343;47.520;19.144;2023-12-20T06:45:40;5.30;;;3.38;;
45618;SDS011;31343;47.520;19.144;2023-12-20T06:48:06;1.67;;;1.58;;
45618;SDS011;31343;47.520;19.144;2023-12-20T06:50:32;4.80;;;3.58;;
45618;SDS011;31343;47.520;19.144;2023-12-20T06:52:58;4.38;;;3.75;;
45618;SDS011;31343;47.520;19.144;2023-12-20T06:55:23;3.15;;;2.60;;
45618;SDS011;31343;47.520;19.144;2023-12-20T06:57:49;3.83;;;2.42;;
45618;SDS011;31343;47.520;19.144;2023-12-20T07:00:15;3.28;;;2.83;;
45618;SDS011;31343;47.520;19.144;2023-12-20T07:02:41;4.95;;;1.65;;
45618;SDS011;31343;47.520;19.144;2023-12-20T07:05:07;4.97;;;3.17;;
45618;SDS011;31343;47.520;19.144;2023-12-20T07:07:33;6.03;;;3.33;;
45618;SDS011;31343;47.520;19.144;2023-12-20T07:09:58;5.15;;;3.75;;
45618;SDS011;31343;47.520;19.144;2023-12-20T07:12:24;2.53;;;1.85;;
45618;SDS011;31343;47.520;19.144;2023-12-20T07:14:50;4.95;;;3.90;;
45618;SDS011;31343;47.520;19.144;2023-12-20T07:17:15;4.25;;;3.10;;
45618;SDS011;31343;47.520;19.144;2023-12-20T07:19:41;2.10;;;1.73;;
45618;SDS011;31343;47.520;19.144;2023-12-20T07:22:07;2.47;;;2.20;;
45618;SDS011;31343;47.520;19.144;2023-12-20T07:24:33;10.30;;;3.47;;
45618;SDS011;31343;47.520;19.144;2023-12-20T07:26:59;4.05;;;2.22;;
45618;SDS011;31343;47.520;19.144;2023-12-20T07:29:25;5.03;;;2.47;;
45618;SDS011;31343;47.520;19.144;2023-12-20T07:31:52;5.05;;;2.95;;
45618;SDS011;31343;47.520;19.144;2023-12-20T07:34:19;2.50;;;2.30;;
45618;SDS011;31343;47.520;19.144;2023-12-20T07:36:45;5.15;;;3.20;;
45618;SDS011;31343;47.520;19.144;2023-12-20T07:39:12;2.83;;;2.63;;
45618;SDS011;31343;47.520;19.144;2023-12-20T07:41:37;5.40;;;3.13;;
45618;SDS011;31343;47.520;19.144;2023-12-20T07:44:04;4.05;;;1.85;;
45618;SDS011;31343;47.520;19.144;2023-12-20T07:46:30;6.68;;;4.00;;
45618;SDS011;31343;47.520;19.144;2023-12-20T07:48:55;3.00;;;1.92;;
45618;SDS011;31343;47.520;19.144;2023-12-20T07:51:21;2.45;;;2.25;;
45618;SDS011;31343;47.520;19.144;2023-12-20T07:53:47;6.65;;;4.10;;
45618;SDS011;31343;47.520;19.144;2023-12-20T07:56:16;4.10;;;2.97;;
45618;SDS011;31343;47.520;19.144;2023-12-20T07:58:42;3.92;;;2.13;;
45618;SDS011;31343;47.520;19.144;2023-12-20T08:01:09;4.05;;;2.80;;
45618;SDS011;31343;47.520;19.144;2023-12-20T08:03:35;9.13;;;3.22;;
45618;SDS011;31343;47.520;19.144;2023-12-20T08:06:01;4.72;;;3.13;;
45618;SDS011;31343;47.520;19.144;2023-12-20T08:08:27;11.45;;;2.60;;
45618;SDS011;31343;47.520;19.144;2023-12-20T08:10:53;6.28;;;2.58;;
45618;SDS011;31343;47.520;19.144;2023-12-20T08:13:19;7.85;;;2.85;;
45618;SDS011;31343;47.520;19.144;2023-12-20T08:15:44;2.60;;;2.35;;
45618;SDS011;31343;47.520;19.144;2023-12-20T08:18:10;10.73;;;3.95;;
45618;SDS011;31343;47.520;19.144;2023-12-20T08:20:36;4.85;;;3.92;;
45618;SDS011;31343;47.520;19.144;2023-12-20T08:23:02;4.13;;;2.85;;
45618;SDS011;31343;47.520;19.144;2023-12-20T08:25:27;4.25;;;3.28;;
45618;SDS011;31343;47.520;19.144;2023-12-20T08:27:53;1.60;;;1.45;;
45618;SDS011;31343;47.520;19.144;2023-12-20T08:30:19;4.20;;;3.28;;
45618;SDS011;31343;47.520;19.144;2023-12-20T08:32:47;5.47;;;3.22;;
45618;SDS011;31343;47.520;19.144;2023-12-20T08:35:14;4.13;;;1.75;;
45618;SDS011;31343;47.520;19.144;2023-12-20T08:37:39;6.50;;;2.85;;
45618;SDS011;31343;47.520;19.144;2023-12-20T08:40:05;5.57;;;3.15;;
45618;SDS011;31343;47.520;19.144;2023-12-20T08:42:31;6.22;;;3.65;;
45618;SDS011;31343;47.520;19.144;2023-12-20T08:44:57;5.10;;;3.25;;
45618;SDS011;31343;47.520;19.144;2023-12-20T08:47:24;7.00;;;3.83;;
45618;SDS011;31343;47.520;19.144;2023-12-20T08:49:50;4.85;;;3.25;;
45618;SDS011;31343;47.520;19.144;2023-12-20T08:52:16;8.25;;;2.75;;
45618;SDS011;31343;47.520;19.144;2023-12-20T08:54:42;8.88;;;3.63;;
45618;SDS011;31343;47.520;19.144;2023-12-20T08:57:08;5.82;;;3.03;;
45618;SDS011;31343;47.520;19.144;2023-12-20T08:59:34;7.78;;;3.45;;
45618;SDS011;31343;47.520;19.144;2023-12-20T09:01:59;4.07;;;3.08;;
45618;SDS011;31343;47.520;19.144;2023-12-20T09:04:25;5.38;;;3.85;;
45618;SDS011;31343;47.520;19.144;2023-12-20T09:06:50;7.13;;;2.55;;
45618;SDS011;31343;47.520;19.144;2023-12-20T09:09:16;6.68;;;4.43;;
45618;SDS011;31343;47.520;19.144;2023-12-20T09:11:42;7.82;;;4.60;;
45618;SDS011;31343;47.520;19.144;2023-12-20T09:14:08;3.42;;;2.45;;
45618;SDS011;31343;47.520;19.144;2023-12-20T09:16:34;7.63;;;6.13;;
45618;SDS011;31343;47.520;19.144;2023-12-20T09:19:00;13.73;;;6.30;;
45618;SDS011;31343;47.520;19.144;2023-12-20T09:21:26;9.10;;;4.68;;
45618;SDS011;31343;47.520;19.144;2023-12-20T09:23:51;8.27;;;4.80;;
45618;SDS011;31343;47.520;19.144;2023-12-20T09:26:17;6.93;;;4.30;;
45618;SDS011;31343;47.520;19.144;2023-12-20T09:28:43;6.88;;;5.10;;
45618;SDS011;31343;47.520;19.144;2023-12-20T09:31:10;11.82;;;5.25;;
45618;SDS011;31343;47.520;19.144;2023-12-20T09:33:36;6.68;;;4.57;;
45618;SDS011;31343;47.520;19.144;2023-12-20T09:36:01;7.22;;;4.10;;
45618;SDS011;31343;47.520;19.144;2023-12-20T09:38:27;9.27;;;5.10;;
45618;SDS011;31343;47.520;19.144;2023-12-20T09:40:53;6.22;;;5.40;;
45618;SDS011;31343;47.520;19.144;2023-12-20T09:43:20;11.73;;;4.57;;
45618;SDS011;31343;47.520;19.144;2023-12-20T09:45:49;5.93;;;3.42;;
45618;SDS011;31343;47.520;19.144;2023-12-20T09:48:18;11.00;;;4.05;;
45618;SDS011;31343;47.520;19.144;2023-12-20T09:50:45;10.25;;;5.85;;
45618;SDS011;31343;47.520;19.144;2023-12-20T09:53:12;8.90;;;8.02;;
45618;SDS011;31343;47.520;19.144;2023-12-20T09:55:41;16.40;;;6.65;;
45618;SDS011;31343;47.520;19.144;2023-12-20T09:58:07;6.20;;;4.13;;
45618;SDS011;31343;47.520;19.144;2023-12-20T10:00:34;5.38;;;4.05;;
45618;SDS011;31343;47.520;19.144;2023-12-20T10:03:00;19.65;;;6.57;;
45618;SDS011;31343;47.520;19.144;2023-12-20T10:05:31;9.55;;;5.03;;
45618;SDS011;31343;47.520;19.144;2023-12-20T10:07:58;7.05;;;5.18;;
45618;SDS011;31343;47.520;19.144;2023-12-20T10:10:24;16.90;;;4.90;;
45618;SDS011;31343;47.520;19.144;2023-12-20T10:13:06;12.32;;;5.43;;
45618;SDS011;31343;47.520;19.144;2023-12-20T10:15:35;9.13;;;5.85;;
45618;SDS011;31343;47.520;19.144;2023-12-20T10:18:02;11.73;;;5.20;;
45618;SDS011;31343;47.520;19.144;2023-12-20T10:20:28;7.95;;;5.07;;
45618;SDS011;31343;47.520;19.144;2023-12-20T10:22:55;11.07;;;7.18;;
45618;SDS011;31343;47.520;19.144;2023-12-20T10:25:21;11.73;;;5.72;;
45618;SDS011;31343;47.520;19.144;2023-12-20T10:27:49;10.93;;;5.03;;
45618;SDS011;31343;47.520;19.144;2023-12-20T10:30:22;11.52;;;6.75;;
45618;SDS011;31343;47.520;19.144;2023-12-20T10:32:49;12.57;;;6.72;;
45618;SDS011;31343;47.520;19.144;2023-12-20T10:35:16;14.93;;;5.78;;
45618;SDS011;31343;47.520;19.144;2023-12-20T10:37:42;14.70;;;6.65;;
45618;SDS011;31343;47.520;19.144;2023-12-20T10:40:07;5.70;;;4.75;;
45618;SDS011;31343;47.520;19.144;2023-12-20T10:42:34;11.30;;;6.13;;
45618;SDS011;31343;47.520;19.144;2023-12-20T10:45:01;10.70;;;7.80;;
45618;SDS011;31343;47.520;19.144;2023-12-20T10:47:27;6.82;;;5.22;;
45618;SDS011;31343;47.520;19.144;2023-12-20T10:49:55;6.55;;;4.55;;
45618;SDS011;31343;47.520;19.144;2023-12-20T10:52:23;12.70;;;6.28;;
45618;SDS011;31343;47.520;19.144;2023-12-20T10:54:49;11.18;;;6.53;;
45618;SDS011;31343;47.520;19.144;2023-12-20T10:57:15;6.45;;;4.32;;
45618;SDS011;31343;47.520;19.144;2023-12-20T10:59:44;9.57;;;7.45;;
45618;SDS011;31343;47.520;19.144;2023-12-20T11:02:14;13.10;;;5.10;;
45618;SDS011;31343;47.520;19.144;2023-12-20T11:07:35;14.73;;;5.82;;
45618;SDS011;31343;47.520;19.144;2023-12-20T11:13:20;10.85;;;4.85;;
45618;SDS011;31343;47.520;19.144;2023-12-20T11:15:48;17.45;;;5.53;;
45618;SDS011;31343;47.520;19.144;2023-12-20T11:18:14;17.98;;;7.22;;
45618;SDS011;31343;47.520;19.144;2023-12-20T11:20:41;14.60;;;7.10;;
45618;SDS011;31343;47.520;19.144;2023-12-20T11:23:10;15.05;;;7.13;;
45618;SDS011;31343;47.520;19.144;2023-12-20T11:25:48;12.98;;;6.88;;
45618;SDS011;31343;47.520;19.144;2023-12-20T11:28:20;7.32;;;5.88;;
45618;SDS011;31343;47.520;19.144;2023-12-20T11:30:48;6.15;;;5.07;;
45618;SDS011;31343;47.520;19.144;2023-12-20T11:33:22;8.07;;;6.18;;
45618;SDS011;31343;47.520;19.144;2023-12-20T11:35:50;16.17;;;7.32;;
45618;SDS011;31343;47.520;19.144;2023-12-20T11:38:16;18.45;;;9.82;;
45618;SDS011;31343;47.520;19.144;2023-12-20T11:40:44;14.48;;;8.77;;
45618;SDS011;31343;47.520;19.144;2023-12-20T11:43:29;11.27;;;7.30;;
45618;SDS011;31343;47.520;19.144;2023-12-20T11:45:56;17.73;;;7.78;;
45618;SDS011;31343;47.520;19.144;2023-12-20T11:48:31;15.32;;;7.47;;
45618;SDS011;31343;47.520;19.144;2023-12-20T11:50:57;13.15;;;6.55;;
45618;SDS011;31343;47.520;19.144;2023-12-20T11:53:23;16.92;;;7.97;;
45618;SDS011;31343;47.520;19.144;2023-12-20T11:55:49;15.52;;;8.65;;
45618;SDS011;31343;47.520;19.144;2023-12-20T11:58:15;15.45;;;8.05;;
45618;SDS011;31343;47.520;19.144;2023-12-20T12:00:42;19.98;;;8.32;;
45618;SDS011;31343;47.520;19.144;2023-12-20T12:03:08;15.30;;;7.90;;
45618;SDS011;31343;47.520;19.144;2023-12-20T12:05:35;18.40;;;10.30;;
45618;SDS011;31343;47.520;19.144;2023-12-20T12:08:01;17.35;;;9.68;;
45618;SDS011;31343;47.520;19.144;2023-12-20T12:10:28;21.35;;;10.00;;
45618;SDS011;31343;47.520;19.144;2023-12-20T12:12:54;23.17;;;9.88;;
45618;SDS011;31343;47.520;19.144;2023-12-20T12:15:20;12.23;;;8.07;;
45618;SDS011;31343;47.520;19.144;2023-12-20T12:17:53;18.65;;;9.85;;
45618;SDS011;31343;47.520;19.144;2023-12-20T12:20:20;15.55;;;8.63;;
45618;SDS011;31343;47.520;19.144;2023-12-20T12:22:46;14.30;;;8.50;;
45618;SDS011;31343;47.520;19.144;2023-12-20T12:25:22;12.90;;;7.50;;
45618;SDS011;31343;47.520;19.144;2023-12-20T12:27:48;13.18;;;8.52;;
45618;SDS011;31343;47.520;19.144;2023-12-20T12:30:15;10.75;;;8.13;;
45618;SDS011;31343;47.520;19.144;2023-12-20T12:32:43;10.48;;;7.38;;
45618;SDS011;31343;47.520;19.144;2023-12-20T12:35:10;16.25;;;6.55;;
45618;SDS011;31343;47.520;19.144;2023-12-20T12:37:39;13.68;;;6.38;;
45618;SDS011;31343;47.520;19.144;2023-12-20T12:40:15;13.45;;;6.95;;
45618;SDS011;31343;47.520;19.144;2023-12-20T12:42:42;11.63;;;7.78;;
45618;SDS011;31343;47.520;19.144;2023-12-20T12:45:08;13.00;;;6.75;;
45618;SDS011;31343;47.520;19.144;2023-12-20T12:47:35;16.20;;;8.68;;
45618;SDS011;31343;47.520;19.144;2023-12-20T12:50:00;13.88;;;8.30;;
45618;SDS011;31343;47.520;19.144;2023-12-20T12:52:26;12.13;;;6.88;;
45618;SDS011;31343;47.520;19.144;2023-12-20T12:54:52;12.15;;;6.30;;
45618;SDS011;31343;47.520;19.144;2023-12-20T12:57:18;12.18;;;8.02;;
45618;SDS011;31343;47.520;19.144;2023-12-20T12:59:44;10.50;;;6.15;;
45618;SDS011;31343;47.520;19.144;2023-12-20T13:02:14;16.90;;;8.10;;
45618;SDS011;31343;47.520;19.144;2023-12-20T13:04:43;15.27;;;8.02;;
45618;SDS011;31343;47.520;19.144;2023-12-20T13:07:09;17.23;;;6.45;;
45618;SDS011;31343;47.520;19.144;2023-12-20T13:09:38;10.50;;;5.72;;
45618;SDS011;31343;47.520;19.144;2023-12-20T13:12:04;13.00;;;6.20;;
45618;SDS011;31343;47.520;19.144;2023-12-20T13:14:34;12.50;;;6.90;;
45618;SDS011;31343;47.520;19.144;2023-12-20T13:17:02;11.50;;;6.60;;
45618;SDS011;31343;47.520;19.144;2023-12-20T13:19:28;10.23;;;5.47;;
45618;SDS011;31343;47.520;19.144;2023-12-20T13:21:55;9.27;;;5.00;;
45618;SDS011;31343;47.520;19.144;2023-12-20T13:24:21;11.77;;;6.75;;
45618;SDS011;31343;47.520;19.144;2023-12-20T13:26:47;10.15;;;5.07;;
45618;SDS011;31343;47.520;19.144;2023-12-20T13:29:12;8.18;;;6.15;;
45618;SDS011;31343;47.520;19.144;2023-12-20T13:31:38;5.88;;;4.07;;
45618;SDS011;31343;47.520;19.144;2023-12-20T13:34:05;7.78;;;4.35;;
45618;SDS011;31343;47.520;19.144;2023-12-20T13:36:31;10.45;;;4.88;;
45618;SDS011;31343;47.520;19.144;2023-12-20T13:38:57;10.57;;;6.20;;
45618;SDS011;31343;47.520;19.144;2023-12-20T13:41:23;9.73;;;5.45;;
45618;SDS011;31343;47.520;19.144;2023-12-20T13:43:48;8.93;;;6.05;;
45618;SDS011;31343;47.520;19.144;2023-12-20T13:46:14;6.55;;;4.78;;
45618;SDS011;31343;47.520;19.144;2023-12-20T13:48:40;4.78;;;3.17;;
45618;SDS011;31343;47.520;19.144;2023-12-20T13:51:06;5.28;;;3.80;;
45618;SDS011;31343;47.520;19.144;2023-12-20T13:53:32;4.60;;;2.65;;
45618;SDS011;31343;47.520;19.144;2023-12-20T13:55:58;6.43;;;2.70;;
45618;SDS011;31343;47.520;19.144;2023-12-20T13:58:25;3.10;;;1.70;;
45618;SDS011;31343;47.520;19.144;2023-12-20T14:00:51;4.93;;;2.85;;
45618;SDS011;31343;47.520;19.144;2023-12-20T14:03:16;4.68;;;3.08;;
45618;SDS011;31343;47.520;19.144;2023-12-20T14:05:42;2.53;;;1.75;;
45618;SDS011;31343;47.520;19.144;2023-12-20T14:08:08;4.70;;;2.92;;
45618;SDS011;31343;47.520;19.144;2023-12-20T14:10:35;5.57;;;2.70;;
45618;SDS011;31343;47.520;19.144;2023-12-20T14:13:00;4.75;;;2.22;;
45618;SDS011;31343;47.520;19.144;2023-12-20T14:15:26;4.85;;;1.88;;
45618;SDS011;31343;47.520;19.144;2023-12-20T14:17:52;4.97;;;2.03;;
45618;SDS011;31343;47.520;19.144;2023-12-20T14:20:18;3.88;;;3.53;;
45618;SDS011;31343;47.520;19.144;2023-12-20T14:22:44;5.65;;;2.47;;
45618;SDS011;31343;47.520;19.144;2023-12-20T14:25:11;4.72;;;2.60;;
45618;SDS011;31343;47.520;19.144;2023-12-20T14:27:39;3.75;;;2.53;;
45618;SDS011;31343;47.520;19.144;2023-12-20T14:30:05;3.38;;;2.17;;
45618;SDS011;31343;47.520;19.144;2023-12-20T14:32:34;5.05;;;2.63;;